createdAt,value
2023-03-01T00:00:44.391Z,2.60
2023-03-01T00:01:44.412Z,2.70
2023-03-01T00:02:44.453Z,1.80
2023-03-01T00:03:44.554Z,1.90
2023-03-01T00:04:44.474Z,2.20
2023-03-01T00:05:44.488Z,1.70
2023-03-01T00:06:44.493Z,1.90
2023-03-01T00:07:44.509Z,2.40
2023-03-01T00:08:44.517Z,1.60
2023-03-01T00:09:44.533Z,1.90
2023-03-01T00:10:44.613Z,2.00
2023-03-01T00:11:44.567Z,2.60
2023-03-01T00:12:44.581Z,1.80
2023-03-01T00:13:44.603Z,2.00
2023-03-01T00:14:44.619Z,2.40
2023-03-01T00:15:44.643Z,1.90
2023-03-01T00:16:44.777Z,1.90
2023-03-01T00:17:44.667Z,1.90
2023-03-01T00:18:44.676Z,2.40
2023-03-01T00:19:44.710Z,2.20
2023-03-01T00:20:44.739Z,1.90
2023-03-01T00:21:44.731Z,2.20
2023-03-01T00:22:44.753Z,2.30
2023-03-01T00:23:44.751Z,1.70
2023-03-01T00:24:44.768Z,2.30
2023-03-01T00:25:44.798Z,2.40
2023-03-01T00:26:44.808Z,2.40
2023-03-01T00:27:44.822Z,2.30
2023-03-01T00:28:44.842Z,2.40
2023-03-01T00:29:44.861Z,2.40
2023-03-01T00:30:44.924Z,2.40
2023-03-01T00:31:44.889Z,2.20
2023-03-01T00:32:44.897Z,1.90
2023-03-01T00:33:44.927Z,2.70
2023-03-01T00:34:44.935Z,2.10
2023-03-01T00:35:44.989Z,2.10
2023-03-01T00:36:44.979Z,2.30
2023-03-01T00:37:44.984Z,2.90
2023-03-01T00:38:44.998Z,2.20
2023-03-01T00:39:45.009Z,2.20
2023-03-01T00:40:45.034Z,2.10
2023-03-01T00:41:45.040Z,2.10
2023-03-01T00:42:45.055Z,2.80
2023-03-01T00:43:45.887Z,2.30
2023-03-01T00:44:45.092Z,2.30
2023-03-01T00:45:45.198Z,1.90
2023-03-01T00:46:45.127Z,2.00
2023-03-01T00:47:45.133Z,2.80
2023-03-01T00:48:45.158Z,2.30
2023-03-01T00:49:45.178Z,2.00
2023-03-01T00:50:45.192Z,1.70
2023-03-01T00:51:45.203Z,2.30
2023-03-01T00:52:45.229Z,2.00
2023-03-01T00:53:45.235Z,2.40
2023-03-01T00:54:45.247Z,1.70
2023-03-01T00:55:45.258Z,2.70
2023-03-01T00:56:45.286Z,2.00
2023-03-01T00:57:45.297Z,2.00
2023-03-01T00:58:45.308Z,1.70
2023-03-01T00:59:45.337Z,1.80
2023-03-01T01:00:45.346Z,1.90
2023-03-01T01:01:45.378Z,2.20
2023-03-01T01:02:45.437Z,2.00
2023-03-01T01:03:45.389Z,2.30
2023-03-01T01:04:45.406Z,1.70
2023-03-01T01:05:45.413Z,1.60
2023-03-01T01:06:45.438Z,1.60
2023-03-01T01:07:45.458Z,2.90
2023-03-01T01:08:45.489Z,1.90
2023-03-01T01:09:45.475Z,1.80
2023-03-01T01:10:45.510Z,2.50
2023-03-01T01:11:45.509Z,2.40
2023-03-01T01:12:45.521Z,2.30
2023-03-01T01:13:45.545Z,2.30
2023-03-01T01:14:45.561Z,2.60
2023-03-01T01:15:45.614Z,1.50
2023-03-01T01:16:45.596Z,2.30
2023-03-01T01:17:45.612Z,1.80
2023-03-01T01:18:45.642Z,1.80
2023-03-01T01:19:45.630Z,2.30
2023-03-01T01:20:45.651Z,2.10
2023-03-01T01:21:45.669Z,1.90
2023-03-01T01:22:45.676Z,2.20
2023-03-01T01:23:45.726Z,1.80
2023-03-01T01:24:45.737Z,2.20
2023-03-01T01:25:45.731Z,1.90
2023-03-01T01:26:45.739Z,1.80
2023-03-01T01:27:45.761Z,1.50
2023-03-01T01:28:45.769Z,1.80
2023-03-01T01:29:45.790Z,1.60
2023-03-01T01:30:45.805Z,1.90
2023-03-01T01:31:45.827Z,1.50
2023-03-01T01:32:45.836Z,1.70
2023-03-01T01:33:45.846Z,2.00
2023-03-01T01:34:45.872Z,2.10
2023-03-01T01:35:45.937Z,2.90
2023-03-01T01:36:45.899Z,1.40
2023-03-01T01:37:45.917Z,1.70
2023-03-01T01:38:45.932Z,2.70
2023-03-01T01:39:45.944Z,2.30
2023-03-01T01:40:45.975Z,2.40
2023-03-01T01:41:45.979Z,1.70
2023-03-01T01:42:45.989Z,1.90
2023-03-01T01:43:46.006Z,2.50
2023-03-01T01:44:46.017Z,2.40
2023-03-01T01:45:46.043Z,1.70
2023-03-01T01:46:46.107Z,1.70
2023-03-01T01:47:46.064Z,2.20
2023-03-01T01:48:46.088Z,1.60
2023-03-01T01:49:46.105Z,1.70
2023-03-01T01:50:46.153Z,2.40
2023-03-01T01:51:46.125Z,1.60
2023-03-01T01:52:46.141Z,1.60
2023-03-01T01:53:46.155Z,1.50
2023-03-01T01:54:46.202Z,2.00
2023-03-01T01:55:46.188Z,1.80
2023-03-01T01:56:46.301Z,2.20
2023-03-01T01:57:46.234Z,1.60
2023-03-01T01:58:46.245Z,2.20
2023-03-01T01:59:46.248Z,1.80
2023-03-01T02:00:46.279Z,3.00
2023-03-01T02:01:46.363Z,1.50
2023-03-01T02:02:46.446Z,2.70
2023-03-01T02:03:46.454Z,1.50
2023-03-01T02:04:46.337Z,1.60
2023-03-01T02:05:46.825Z,1.70
2023-03-01T02:06:46.363Z,1.90
2023-03-01T02:07:46.382Z,2.60
2023-03-01T02:08:46.404Z,1.50
2023-03-01T02:09:46.430Z,2.00
2023-03-01T02:10:46.428Z,1.90
2023-03-01T02:11:46.506Z,2.10
2023-03-01T02:12:46.545Z,1.60
2023-03-01T02:13:46.477Z,1.90
2023-03-01T02:14:46.499Z,1.40
2023-03-01T02:15:46.602Z,1.50
2023-03-01T02:16:46.518Z,1.60
2023-03-01T02:17:46.537Z,2.30
2023-03-01T02:18:46.560Z,2.00
2023-03-01T02:19:46.561Z,1.40
2023-03-01T02:20:46.586Z,2.50
2023-03-01T02:21:46.592Z,1.50
2023-03-01T02:22:46.608Z,2.20
2023-03-01T02:23:46.622Z,1.50
2023-03-01T02:24:46.650Z,1.60
2023-03-01T02:25:46.654Z,1.50
2023-03-01T02:26:46.669Z,1.70
2023-03-01T02:27:46.696Z,2.00
2023-03-01T02:28:46.727Z,2.50
2023-03-01T02:29:46.725Z,2.00
2023-03-01T02:30:46.740Z,3.00
2023-03-01T02:31:46.753Z,1.60
2023-03-01T02:32:46.769Z,1.80
2023-03-01T02:33:46.785Z,3.10
2023-03-01T02:34:46.794Z,1.80
2023-03-01T02:35:46.898Z,1.70
2023-03-01T02:36:46.826Z,1.90
2023-03-01T02:37:46.840Z,2.00
2023-03-01T02:38:46.856Z,1.80
2023-03-01T02:39:46.878Z,1.60
2023-03-01T02:40:46.888Z,1.90
2023-03-01T02:41:46.902Z,2.00
2023-03-01T02:42:46.924Z,1.80
2023-03-01T02:43:46.933Z,1.60
2023-03-01T02:44:46.982Z,1.40
2023-03-01T02:45:46.963Z,2.00
2023-03-01T02:46:47.045Z,1.80
2023-03-01T02:47:46.997Z,2.50
2023-03-01T02:48:47.062Z,2.60
2023-03-01T02:49:47.034Z,2.00
2023-03-01T02:50:47.051Z,2.50
2023-03-01T02:51:47.056Z,1.90
2023-03-01T02:52:47.080Z,2.70
2023-03-01T02:53:47.108Z,1.50
2023-03-01T02:54:47.103Z,2.20
2023-03-01T02:55:47.126Z,1.50
2023-03-01T02:56:47.154Z,1.90
2023-03-01T02:57:47.191Z,1.80
2023-03-01T02:58:47.166Z,2.10
2023-03-01T02:59:47.193Z,2.00
2023-03-01T03:00:47.244Z,2.00
2023-03-01T03:01:47.477Z,1.30
2023-03-01T03:02:47.228Z,1.50
2023-03-01T03:03:47.277Z,2.90
2023-03-01T03:04:47.267Z,2.00
2023-03-01T03:05:47.281Z,2.20
2023-03-01T03:06:47.301Z,2.50
2023-03-01T03:07:47.314Z,1.50
2023-03-01T03:08:47.336Z,1.50
2023-03-01T03:09:47.350Z,3.00
2023-03-01T03:10:47.352Z,2.10
2023-03-01T03:11:47.379Z,1.90
2023-03-01T03:12:47.383Z,3.40
2023-03-01T03:13:47.398Z,1.90
2023-03-01T03:14:47.425Z,1.80
2023-03-01T03:15:47.438Z,2.00
2023-03-01T03:16:47.469Z,2.30
2023-03-01T03:17:47.460Z,2.40
2023-03-01T03:18:47.475Z,1.90
2023-03-01T03:19:47.501Z,1.60
2023-03-01T03:20:47.506Z,2.00
2023-03-01T03:21:47.521Z,1.90
2023-03-01T03:22:47.539Z,2.10
2023-03-01T03:23:47.560Z,2.60
2023-03-01T03:24:47.575Z,2.80
2023-03-01T03:25:47.581Z,2.00
2023-03-01T03:26:47.605Z,1.50
2023-03-01T03:27:47.646Z,1.80
2023-03-01T03:28:47.635Z,2.10
2023-03-01T03:29:47.651Z,2.40
2023-03-01T03:30:47.661Z,2.50
2023-03-01T03:31:47.823Z,1.80
2023-03-01T03:32:47.708Z,2.40
2023-03-01T03:33:47.712Z,2.50
2023-03-01T03:34:47.737Z,2.00
2023-03-01T03:35:47.772Z,2.60
2023-03-01T03:36:47.758Z,2.30
2023-03-01T03:37:47.774Z,1.90
2023-03-01T03:38:47.788Z,1.50
2023-03-01T03:39:47.796Z,2.40
2023-03-01T03:40:47.819Z,1.50
2023-03-01T03:41:47.835Z,2.00
2023-03-01T03:42:47.844Z,2.00
2023-03-01T03:43:47.861Z,2.20
2023-03-01T03:44:47.880Z,2.20
2023-03-01T03:45:47.942Z,2.20
2023-03-01T03:46:47.907Z,1.70
2023-03-01T03:47:47.919Z,2.10
2023-03-01T03:48:47.972Z,2.30
2023-03-01T03:49:47.951Z,2.30
2023-03-01T03:50:47.975Z,2.30
2023-03-01T03:51:47.987Z,1.90
2023-03-01T03:52:48.003Z,3.10
2023-03-01T03:53:48.021Z,2.10
2023-03-01T03:54:48.028Z,2.20
2023-03-01T03:55:48.049Z,2.30
2023-03-01T03:56:48.060Z,2.00
2023-03-01T03:57:48.093Z,3.50
2023-03-01T03:58:48.089Z,2.00
2023-03-01T03:59:48.114Z,2.90
2023-03-01T04:00:48.129Z,2.60
2023-03-01T04:01:48.195Z,1.90
2023-03-01T04:02:48.179Z,2.60
2023-03-01T04:03:48.175Z,2.00
2023-03-01T04:04:48.204Z,3.00
2023-03-01T04:05:48.202Z,2.70
2023-03-01T04:06:48.220Z,2.10
2023-03-01T04:07:48.232Z,2.20
2023-03-01T04:08:48.260Z,3.30
2023-03-01T04:09:48.266Z,2.90
2023-03-01T04:10:48.299Z,3.20
2023-03-01T04:11:48.303Z,2.80
2023-03-01T04:12:48.306Z,2.30
2023-03-01T04:13:48.327Z,2.10
2023-03-01T04:14:49.030Z,2.60
2023-03-01T04:15:48.358Z,3.10
2023-03-01T04:16:48.434Z,3.60
2023-03-01T04:17:48.389Z,2.90
2023-03-01T04:18:48.404Z,3.10
2023-03-01T04:19:48.425Z,2.80
2023-03-01T04:20:48.449Z,2.30
2023-03-01T04:21:48.445Z,2.60
2023-03-01T04:22:48.475Z,2.20
2023-03-01T04:23:48.482Z,2.50
2023-03-01T04:24:48.497Z,3.30
2023-03-01T04:25:48.515Z,2.70
2023-03-01T04:26:48.521Z,2.50
2023-03-01T04:27:48.535Z,2.50
2023-03-01T04:28:48.555Z,3.00
2023-03-01T04:29:48.572Z,2.80
2023-03-01T04:30:48.588Z,2.40
2023-03-01T04:31:48.743Z,2.90
2023-03-01T04:32:48.627Z,3.40
2023-03-01T04:33:48.661Z,2.20
2023-03-01T04:34:48.643Z,2.60
2023-03-01T04:35:48.781Z,2.90
2023-03-01T04:36:48.788Z,2.30
2023-03-01T04:37:48.697Z,3.60
2023-03-01T04:38:48.709Z,2.10
2023-03-01T04:39:48.718Z,3.30
2023-03-01T04:40:48.736Z,2.00
2023-03-01T04:41:48.766Z,2.00
2023-03-01T04:42:48.771Z,3.30
2023-03-01T04:43:48.782Z,2.20
2023-03-01T04:44:48.797Z,2.90
2023-03-01T04:45:48.922Z,2.30
2023-03-01T04:46:48.834Z,3.20
2023-03-01T04:47:48.849Z,2.40
2023-03-01T04:48:48.860Z,2.00
2023-03-01T04:49:48.896Z,2.50
2023-03-01T04:50:48.894Z,2.50
2023-03-01T04:51:48.909Z,2.60
2023-03-01T04:52:48.952Z,2.00
2023-03-01T04:53:48.947Z,2.80
2023-03-01T04:54:48.959Z,3.40
2023-03-01T04:55:48.964Z,2.80
2023-03-01T04:56:48.981Z,3.80
2023-03-01T04:57:49.004Z,2.30
2023-03-01T04:58:49.022Z,2.20
2023-03-01T04:59:49.032Z,2.40
2023-03-01T05:00:49.047Z,2.40
2023-03-01T05:01:49.062Z,2.90
2023-03-01T05:02:49.099Z,2.70
2023-03-01T05:03:49.094Z,3.00
2023-03-01T05:04:49.130Z,2.60
2023-03-01T05:05:49.132Z,2.40
2023-03-01T05:06:49.158Z,3.50
2023-03-01T05:07:49.157Z,1.80
2023-03-01T05:08:49.185Z,2.30
2023-03-01T05:09:49.178Z,2.60
2023-03-01T05:10:49.234Z,2.70
2023-03-01T05:11:49.218Z,2.20
2023-03-01T05:12:49.227Z,2.60
2023-03-01T05:13:49.251Z,2.60
2023-03-01T05:14:49.264Z,3.20
2023-03-01T05:15:49.362Z,2.80
2023-03-01T05:16:49.288Z,3.10
2023-03-01T05:17:49.303Z,2.80
2023-03-01T05:18:49.317Z,3.50
2023-03-01T05:19:49.341Z,2.10
2023-03-01T05:20:49.347Z,2.10
2023-03-01T05:21:49.372Z,2.90
2023-03-01T05:22:49.384Z,2.50
2023-03-01T05:23:49.396Z,3.10
2023-03-01T05:24:49.433Z,3.30
2023-03-01T05:25:49.434Z,2.50
2023-03-01T05:26:49.446Z,2.30
2023-03-01T05:27:49.466Z,2.60
2023-03-01T05:28:49.479Z,2.30
2023-03-01T05:29:49.487Z,2.70
2023-03-01T05:30:49.547Z,3.70
2023-03-01T05:31:49.555Z,2.80
2023-03-01T05:32:49.589Z,2.60
2023-03-01T05:33:49.549Z,2.80
2023-03-01T05:34:49.569Z,2.70
2023-03-01T05:35:49.711Z,4.20
2023-03-01T05:36:49.597Z,2.40
2023-03-01T05:37:49.613Z,2.50
2023-03-01T05:38:49.621Z,2.80
2023-03-01T05:39:51.010Z,2.30
2023-03-01T05:40:49.683Z,3.00
2023-03-01T05:41:50.079Z,2.50
2023-03-01T05:42:49.686Z,2.80
2023-03-01T05:43:49.704Z,2.40
2023-03-01T05:44:49.718Z,2.60
2023-03-01T05:45:49.765Z,3.00
2023-03-01T05:46:49.744Z,3.80
2023-03-01T05:47:49.757Z,2.90
2023-03-01T05:48:49.783Z,3.40
2023-03-01T05:49:49.789Z,4.10
2023-03-01T05:50:49.812Z,2.70
2023-03-01T05:51:49.818Z,2.80
2023-03-01T05:52:49.836Z,2.40
2023-03-01T05:53:49.854Z,2.30
2023-03-01T05:54:49.877Z,4.10
2023-03-01T05:55:49.884Z,3.40
2023-03-01T05:56:49.924Z,3.50
2023-03-01T05:57:49.920Z,2.20
2023-03-01T05:58:49.927Z,2.90
2023-03-01T05:59:49.941Z,3.00
2023-03-01T06:00:49.972Z,3.00
2023-03-01T06:01:49.980Z,4.00
2023-03-01T06:02:50.000Z,3.20
2023-03-01T06:03:50.012Z,4.00
2023-03-01T06:04:50.099Z,4.10
2023-03-01T06:05:50.078Z,4.10
2023-03-01T06:06:50.050Z,3.20
2023-03-01T06:07:50.074Z,4.20
2023-03-01T06:08:50.082Z,2.70
2023-03-01T06:09:50.104Z,2.60
2023-03-01T06:10:50.112Z,4.00
2023-03-01T06:11:50.134Z,3.60
2023-03-01T06:12:50.163Z,3.80
2023-03-01T06:13:50.172Z,3.10
2023-03-01T06:14:50.189Z,3.30
2023-03-01T06:15:50.230Z,2.90
2023-03-01T06:16:50.210Z,2.60
2023-03-01T06:17:50.217Z,3.70
2023-03-01T06:18:50.237Z,4.20
2023-03-01T06:19:50.249Z,3.40
2023-03-01T06:20:50.264Z,4.50
2023-03-01T06:21:50.279Z,3.00
2023-03-01T06:22:50.319Z,4.40
2023-03-01T06:23:50.311Z,3.30
2023-03-01T06:24:50.323Z,3.90
2023-03-01T06:25:50.340Z,2.60
2023-03-01T06:26:50.363Z,4.30
2023-03-01T06:27:50.382Z,3.10
2023-03-01T06:28:50.412Z,3.40
2023-03-01T06:29:50.409Z,3.60
2023-03-01T06:30:50.420Z,3.80
2023-03-01T06:31:50.530Z,3.70
2023-03-01T06:32:50.446Z,3.10
2023-03-01T06:33:50.469Z,3.60
2023-03-01T06:34:50.476Z,4.30
2023-03-01T06:35:50.551Z,3.70
2023-03-01T06:36:50.517Z,4.50
2023-03-01T06:37:50.530Z,4.20
2023-03-01T06:38:50.537Z,2.70
2023-03-01T06:39:50.561Z,4.30
2023-03-01T06:40:50.577Z,3.10
2023-03-01T06:41:50.591Z,3.50
2023-03-01T06:42:50.618Z,4.00
2023-03-01T06:43:50.620Z,4.10
2023-03-01T06:44:50.647Z,3.40
2023-03-01T06:45:50.652Z,4.90
2023-03-01T06:46:50.693Z,5.20
2023-03-01T06:47:50.699Z,3.80
2023-03-01T06:48:53.124Z,3.50
2023-03-01T06:49:50.704Z,4.10
2023-03-01T06:50:50.831Z,4.40
2023-03-01T06:51:50.743Z,3.30
2023-03-01T06:52:50.751Z,3.40
2023-03-01T06:53:50.774Z,4.50
2023-03-01T06:54:50.779Z,3.50
2023-03-01T06:55:50.792Z,5.10
2023-03-01T06:56:50.806Z,3.20
2023-03-01T06:57:50.828Z,3.70
2023-03-01T06:58:50.846Z,3.90
2023-03-01T06:59:50.854Z,3.40
2023-03-01T07:00:50.893Z,4.00
2023-03-01T07:01:50.909Z,3.20
2023-03-01T07:02:51.018Z,4.50
2023-03-01T07:03:50.909Z,3.90
2023-03-01T07:04:50.932Z,4.90
2023-03-01T07:05:50.947Z,4.40
2023-03-01T07:06:50.967Z,3.10
2023-03-01T07:07:50.972Z,3.70
2023-03-01T07:08:50.985Z,3.50
2023-03-01T07:09:51.017Z,3.70
2023-03-01T07:10:52.724Z,4.00
2023-03-01T07:11:51.048Z,3.40
2023-03-01T07:12:51.048Z,3.90
2023-03-01T07:13:51.068Z,3.20
2023-03-01T07:14:51.089Z,4.80
2023-03-01T07:15:51.189Z,3.30
2023-03-01T07:16:51.132Z,3.30
2023-03-01T07:17:51.121Z,4.30
2023-03-01T07:18:51.141Z,4.40
2023-03-01T07:19:51.169Z,5.20
2023-03-01T07:20:51.172Z,4.20
2023-03-01T07:21:51.190Z,3.80
2023-03-01T07:22:51.208Z,4.20
2023-03-01T07:23:51.237Z,4.30
2023-03-01T07:24:51.235Z,3.70
2023-03-01T07:25:51.244Z,4.30
2023-03-01T07:26:51.259Z,4.00
2023-03-01T07:27:51.280Z,3.90
2023-03-01T07:28:51.296Z,3.40
2023-03-01T07:29:51.304Z,5.20
2023-03-01T07:30:51.326Z,4.20
2023-03-01T07:31:51.411Z,4.00
2023-03-01T07:32:52.031Z,4.40
2023-03-01T07:33:51.372Z,3.90
2023-03-01T07:34:51.380Z,4.90
2023-03-01T07:35:51.477Z,4.40
2023-03-01T07:36:51.412Z,3.30
2023-03-01T07:37:51.432Z,4.50
2023-03-01T07:38:51.452Z,3.80
2023-03-01T07:39:51.465Z,5.90
2023-03-01T07:40:51.469Z,3.30
2023-03-01T07:41:51.485Z,3.70
2023-03-01T07:42:51.499Z,3.40
2023-03-01T07:43:51.515Z,4.10
2023-03-01T07:44:51.529Z,4.00
2023-03-01T07:45:51.557Z,3.00
2023-03-01T07:46:51.562Z,3.90
2023-03-01T07:47:51.585Z,5.40
2023-03-01T07:48:51.613Z,3.80
2023-03-01T07:49:51.606Z,4.00
2023-03-01T07:50:51.621Z,3.70
2023-03-01T07:51:51.642Z,3.70
2023-03-01T07:52:51.670Z,4.50
2023-03-01T07:53:51.672Z,5.00
2023-03-01T07:54:51.680Z,3.50
2023-03-01T07:55:51.702Z,5.30
2023-03-01T07:56:51.719Z,3.20
2023-03-01T07:57:51.726Z,3.80
2023-03-01T07:58:51.764Z,5.00
2023-03-01T07:59:51.762Z,3.40
2023-03-01T08:00:51.778Z,3.50
2023-03-01T08:01:51.820Z,3.70
2023-03-01T08:02:51.813Z,4.00
2023-03-01T08:03:51.821Z,3.40
2023-03-01T08:04:51.857Z,4.70
2023-03-01T08:05:51.845Z,4.00
2023-03-01T08:06:51.868Z,4.40
2023-03-01T08:07:51.873Z,4.50
2023-03-01T08:08:51.905Z,4.60
2023-03-01T08:09:51.911Z,3.60
2023-03-01T08:10:51.923Z,3.80
2023-03-01T08:11:51.994Z,3.00
2023-03-01T08:12:51.957Z,3.60
2023-03-01T08:13:53.839Z,3.20
2023-03-01T08:14:51.977Z,3.50
2023-03-01T08:15:51.992Z,3.20
2023-03-01T08:16:52.109Z,3.90
2023-03-01T08:17:52.023Z,3.30
2023-03-01T08:18:52.054Z,3.50
2023-03-01T08:19:52.060Z,3.10
2023-03-01T08:20:52.094Z,3.20
2023-03-01T08:21:52.089Z,3.20
2023-03-01T08:22:52.105Z,3.80
2023-03-01T08:23:52.112Z,3.40
2023-03-01T08:24:52.128Z,3.70
2023-03-01T08:25:52.146Z,3.40
2023-03-01T08:26:52.170Z,4.20
2023-03-01T08:27:52.180Z,3.50
2023-03-01T08:28:52.198Z,3.60
2023-03-01T08:29:52.203Z,3.10
2023-03-01T08:30:52.224Z,3.80
2023-03-01T08:31:52.389Z,3.90
2023-03-01T08:32:52.430Z,3.30
2023-03-01T08:33:52.264Z,3.80
2023-03-01T08:34:52.278Z,4.40
2023-03-01T08:35:52.357Z,3.70
2023-03-01T08:36:52.350Z,3.50
2023-03-01T08:37:52.321Z,5.10
2023-03-01T08:38:52.348Z,3.40
2023-03-01T08:39:52.380Z,4.50
2023-03-01T08:40:52.368Z,3.50
2023-03-01T08:41:52.396Z,3.10
2023-03-01T08:42:52.408Z,3.80
2023-03-01T08:43:52.422Z,3.60
2023-03-01T08:44:52.434Z,3.80
2023-03-01T08:45:52.494Z,5.20
2023-03-01T08:46:52.466Z,4.80
2023-03-01T08:47:52.474Z,4.80
2023-03-01T08:48:52.501Z,3.30
2023-03-01T08:49:52.513Z,4.30
2023-03-01T08:50:52.521Z,3.40
2023-03-01T08:51:52.559Z,3.20
2023-03-01T08:52:52.585Z,2.90
2023-03-01T08:53:52.574Z,3.90
2023-03-01T08:54:52.580Z,3.70
2023-03-01T08:55:52.596Z,4.10
2023-03-01T08:56:52.620Z,3.60
2023-03-01T08:57:52.632Z,3.60
2023-03-01T08:58:52.640Z,3.80
2023-03-01T08:59:52.662Z,2.80
2023-03-01T09:00:52.670Z,4.50
2023-03-01T09:01:52.744Z,3.70
2023-03-01T09:02:52.705Z,3.90
2023-03-01T09:03:52.811Z,5.20
2023-03-01T09:04:52.745Z,3.20
2023-03-01T09:05:52.745Z,3.90
2023-03-01T09:06:52.773Z,3.90
2023-03-01T09:07:52.791Z,4.10
2023-03-01T09:08:52.827Z,4.90
2023-03-01T09:09:52.805Z,3.70
2023-03-01T09:10:52.822Z,4.80
2023-03-01T09:11:52.843Z,3.00
2023-03-01T09:12:52.851Z,4.10
2023-03-01T09:13:52.874Z,3.80
2023-03-01T09:14:52.882Z,3.80
2023-03-01T09:15:52.901Z,3.30
2023-03-01T09:16:53.019Z,4.10
2023-03-01T09:17:52.932Z,4.10
2023-03-01T09:18:52.960Z,4.00
2023-03-01T09:19:52.971Z,4.20
2023-03-01T09:20:52.973Z,3.70
2023-03-01T09:21:53.041Z,4.00
2023-03-01T09:22:53.008Z,3.50
2023-03-01T09:23:53.024Z,4.60
2023-03-01T09:24:53.053Z,3.50
2023-03-01T09:25:53.055Z,3.30
2023-03-01T09:26:53.094Z,5.70
2023-03-01T09:27:53.078Z,4.10
2023-03-01T09:28:53.096Z,3.80
2023-03-01T09:29:53.115Z,3.60
2023-03-01T09:30:53.148Z,3.20
2023-03-01T09:31:53.155Z,3.80
2023-03-01T09:32:53.154Z,3.70
2023-03-01T09:33:53.186Z,4.30
2023-03-01T09:34:53.191Z,3.40
2023-03-01T09:35:53.233Z,3.00
2023-03-01T09:36:53.229Z,2.80
2023-03-01T09:37:53.228Z,3.80
2023-03-01T09:38:53.244Z,3.70
2023-03-01T09:39:53.267Z,3.00
2023-03-01T09:40:53.300Z,4.40
2023-03-01T09:41:53.295Z,4.20
2023-03-01T09:42:53.303Z,3.20
2023-03-01T09:43:55.965Z,2.90
2023-03-01T09:44:53.331Z,3.10
2023-03-01T09:45:53.442Z,3.90
2023-03-01T09:46:53.364Z,3.50
2023-03-01T09:47:53.377Z,3.60
2023-03-01T09:48:53.393Z,3.80
2023-03-01T09:49:53.414Z,2.80
2023-03-01T09:50:53.430Z,5.10
2023-03-01T09:51:53.455Z,3.70
2023-03-01T09:52:53.461Z,3.60
2023-03-01T09:53:53.476Z,4.40
2023-03-01T09:54:53.505Z,3.20
2023-03-01T09:55:53.500Z,2.80
2023-03-01T09:56:53.535Z,3.60
2023-03-01T09:57:53.531Z,4.00
2023-03-01T09:58:53.565Z,3.70
2023-03-01T09:59:53.569Z,3.40
2023-03-01T10:00:53.581Z,3.50
2023-03-01T10:01:53.591Z,3.90
2023-03-01T10:02:53.663Z,3.20
2023-03-01T10:03:53.680Z,3.00
2023-03-01T10:04:53.705Z,3.60
2023-03-01T10:05:53.652Z,3.30
2023-03-01T10:06:53.665Z,4.10
2023-03-01T10:07:53.686Z,3.60
2023-03-01T10:08:53.704Z,3.50
2023-03-01T10:09:53.753Z,3.30
2023-03-01T10:10:53.726Z,2.80
2023-03-01T10:11:53.766Z,3.20
2023-03-01T10:12:53.780Z,3.00
2023-03-01T10:13:53.823Z,3.60
2023-03-01T10:14:53.795Z,3.70
2023-03-01T10:15:53.878Z,3.60
2023-03-01T10:16:53.814Z,3.90
2023-03-01T10:17:53.836Z,2.60
2023-03-01T10:18:53.847Z,4.50
2023-03-01T10:19:53.859Z,3.60
2023-03-01T10:20:53.885Z,3.10
2023-03-01T10:21:53.897Z,3.40
2023-03-01T10:22:53.905Z,2.70
2023-03-01T10:23:53.929Z,3.50
2023-03-01T10:24:53.956Z,2.60
2023-03-01T10:25:53.957Z,3.00
2023-03-01T10:26:53.982Z,3.60
2023-03-01T10:27:53.990Z,3.00
2023-03-01T10:28:54.022Z,2.80
2023-03-01T10:29:54.009Z,2.80
2023-03-01T10:30:54.071Z,3.10
2023-03-01T10:31:54.154Z,4.10
2023-03-01T10:32:54.059Z,2.90
2023-03-01T10:33:54.075Z,2.70
2023-03-01T10:34:54.085Z,2.70
2023-03-01T10:35:54.142Z,3.00
2023-03-01T10:36:54.121Z,2.70
2023-03-01T10:37:54.128Z,3.40
2023-03-01T10:38:54.152Z,2.70
2023-03-01T10:39:54.160Z,3.20
2023-03-01T10:40:54.175Z,2.70
2023-03-01T10:41:54.201Z,3.20
2023-03-01T10:42:54.211Z,3.50
2023-03-01T10:43:54.219Z,3.00
2023-03-01T10:44:54.257Z,3.40
2023-03-01T10:45:54.362Z,3.00
2023-03-01T10:46:54.270Z,2.80
2023-03-01T10:47:54.287Z,3.10
2023-03-01T10:48:54.294Z,2.90
2023-03-01T10:49:54.316Z,3.20
2023-03-01T10:50:54.325Z,3.70
2023-03-01T10:51:54.345Z,3.10
2023-03-01T10:52:54.356Z,2.50
2023-03-01T10:53:54.371Z,3.90
2023-03-01T10:54:54.398Z,2.50
2023-03-01T10:55:54.404Z,3.20
2023-03-01T10:56:54.420Z,2.80
2023-03-01T10:57:54.440Z,3.50
2023-03-01T10:58:54.451Z,3.50
2023-03-01T10:59:54.461Z,3.10
2023-03-01T11:00:54.506Z,2.80
2023-03-01T11:01:54.524Z,2.80
2023-03-01T11:02:54.509Z,2.90
2023-03-01T11:03:54.518Z,3.00
2023-03-01T11:04:54.616Z,2.60
2023-03-01T11:05:54.555Z,2.70
2023-03-01T11:06:54.585Z,2.70
2023-03-01T11:07:54.583Z,2.90
2023-03-01T11:08:54.606Z,2.50
2023-03-01T11:09:54.609Z,2.60
2023-03-01T11:10:54.630Z,2.60
2023-03-01T11:11:54.646Z,3.30
2023-03-01T11:12:54.666Z,2.60
2023-03-01T11:13:54.678Z,3.60
2023-03-01T11:14:54.690Z,2.30
2023-03-01T11:15:54.751Z,3.30
2023-03-01T11:16:54.743Z,2.60
2023-03-01T11:18:00.802Z,3.30
2023-03-01T11:18:54.743Z,3.40
2023-03-01T11:20:02.604Z,3.10
2023-03-01T11:20:54.772Z,3.40
2023-03-01T11:21:54.846Z,2.30
2023-03-01T11:22:54.822Z,2.60
2023-03-01T11:23:54.825Z,2.80
2023-03-01T11:25:08.967Z,2.50
2023-03-01T11:25:54.855Z,2.80
2023-03-01T11:26:54.880Z,2.50
2023-03-01T11:27:54.888Z,3.00
2023-03-01T11:28:54.912Z,2.90
2023-03-01T11:29:54.924Z,2.80
2023-03-01T11:31:07.171Z,2.70
2023-03-01T11:31:57.842Z,2.50
2023-03-01T11:32:55.046Z,2.90
2023-03-01T11:33:54.977Z,3.20
2023-03-01T11:34:55.008Z,3.10
2023-03-01T11:35:55.022Z,3.00
2023-03-01T11:36:55.053Z,2.90
2023-03-01T11:37:55.032Z,2.60
2023-03-01T11:38:55.037Z,2.40
2023-03-01T11:39:55.052Z,2.30
2023-03-01T11:40:56.166Z,2.40
2023-03-01T11:41:55.086Z,3.90
2023-03-01T11:42:55.175Z,2.50
2023-03-01T11:43:55.138Z,3.10
2023-03-01T11:44:55.142Z,2.90
2023-03-01T11:45:55.144Z,2.70
2023-03-01T11:46:55.248Z,3.70
2023-03-01T11:47:55.178Z,2.50
2023-03-01T11:48:55.214Z,2.60
2023-03-01T11:49:55.210Z,2.50
2023-03-01T11:50:55.231Z,3.20
2023-03-01T11:51:55.249Z,2.40
2023-03-01T11:52:55.245Z,2.90
2023-03-01T11:53:55.262Z,3.00
2023-03-01T11:54:55.286Z,2.80
2023-03-01T11:55:55.310Z,3.20
2023-03-01T11:56:55.351Z,2.60
2023-03-01T11:57:55.330Z,3.00
2023-03-01T11:58:55.345Z,2.50
2023-03-01T11:59:55.351Z,3.00
2023-03-01T12:00:55.367Z,2.70
2023-03-01T12:01:55.420Z,3.60
2023-03-01T12:02:55.398Z,2.80
2023-03-01T12:03:55.464Z,2.30
2023-03-01T12:04:55.467Z,2.60
2023-03-01T12:05:55.451Z,2.70
2023-03-01T12:06:56.770Z,2.50
2023-03-01T12:07:55.518Z,3.70
2023-03-01T12:08:55.498Z,3.40
2023-03-01T12:09:55.521Z,2.60
2023-03-01T12:10:55.526Z,2.30
2023-03-01T12:11:55.533Z,2.50
2023-03-01T12:12:55.549Z,3.20
2023-03-01T12:13:55.571Z,3.40
2023-03-01T12:14:55.585Z,2.50
2023-03-01T12:15:55.593Z,2.50
2023-03-01T12:16:55.675Z,2.50
2023-03-01T12:17:55.624Z,2.70
2023-03-01T12:18:55.647Z,2.30
2023-03-01T12:19:55.658Z,2.50
2023-03-01T12:20:55.702Z,2.30
2023-03-01T12:21:55.692Z,2.70
2023-03-01T12:22:55.704Z,3.00
2023-03-01T12:23:55.724Z,2.40
2023-03-01T12:24:55.753Z,4.60
2023-03-01T12:25:55.748Z,2.20
2023-03-01T12:26:55.778Z,2.40
2023-03-01T12:27:55.780Z,2.50
2023-03-01T12:28:55.792Z,2.90
2023-03-01T12:29:55.816Z,3.00
2023-03-01T12:30:55.827Z,2.70
2023-03-01T12:31:55.919Z,2.50
2023-03-01T12:32:55.895Z,2.60
2023-03-01T12:33:55.874Z,3.00
2023-03-01T12:34:55.890Z,2.60
2023-03-01T12:35:55.940Z,2.40
2023-03-01T12:36:55.957Z,2.90
2023-03-01T12:37:55.928Z,2.50
2023-03-01T12:38:55.942Z,2.60
2023-03-01T12:39:55.966Z,3.00
2023-03-01T12:40:55.991Z,2.50
2023-03-01T12:41:55.986Z,2.80
2023-03-01T12:42:56.008Z,2.30
2023-03-01T12:43:56.029Z,3.20
2023-03-01T12:44:56.036Z,3.00
2023-03-01T12:45:56.090Z,2.40
2023-03-01T12:46:56.070Z,2.60
2023-03-01T12:47:56.156Z,2.30
2023-03-01T12:48:56.099Z,2.60
2023-03-01T12:49:56.115Z,2.40
2023-03-01T12:50:56.124Z,2.40
2023-03-01T12:51:57.509Z,2.30
2023-03-01T12:52:56.184Z,3.20
2023-03-01T12:53:56.168Z,2.80
2023-03-01T12:54:56.185Z,2.80
2023-03-01T12:55:56.209Z,2.90
2023-03-01T12:56:56.222Z,2.60
2023-03-01T12:57:56.241Z,2.60
2023-03-01T12:58:58.855Z,2.40
2023-03-01T12:59:56.282Z,3.10
2023-03-01T13:00:56.310Z,2.70
2023-03-01T13:01:56.297Z,2.50
2023-03-01T13:02:56.316Z,3.00
2023-03-01T13:03:56.595Z,3.10
2023-03-01T13:04:56.340Z,2.40
2023-03-01T13:05:56.371Z,2.60
2023-03-01T13:06:56.384Z,2.50
2023-03-01T13:07:56.378Z,2.50
2023-03-01T13:08:56.429Z,3.00
2023-03-01T13:09:56.414Z,2.30
2023-03-01T13:10:56.425Z,2.80
2023-03-01T13:11:56.448Z,2.40
2023-03-01T13:12:56.460Z,2.70
2023-03-01T13:13:56.469Z,2.20
2023-03-01T13:14:56.487Z,2.50
2023-03-01T13:15:56.501Z,3.10
2023-03-01T13:16:56.752Z,3.10
2023-03-01T13:17:56.539Z,2.40
2023-03-01T13:18:56.552Z,2.90